Time;durP1;ratioP1;P1;durP2;ratioP2;P2;SDS_P1;SDS_P2;PMS_P1;PMS_P2;Temp;Humidity;BMP_temperature;BMP_pressure;BME280_temperature;BME280_humidity;BME280_pressure;Samples;Min_cycle;Max_cycle;Signal;HPM_P1;HPM_P2
2023/06/23 00:00:09;;;;;;;;;7.00;7.00;;;;;20.87;100.00;101944.34;5051008;28;45474;-77
2023/06/23 00:02:35;;;;;;;;;10.00;7.00;;;;;20.81;100.00;101952.50;5052412;28;45166;-77
2023/06/23 00:05:00;;;;;;;;;3.67;3.67;;;;;20.80;100.00;101950.72;5049226;28;47633;-75
2023/06/23 00:07:26;;;;;;;;;10.67;6.00;;;;;20.77;100.00;101948.94;5053333;28;45471;-75
2023/06/23 00:09:51;;;;;;;;;8.00;8.00;;;;;20.74;100.00;101945.44;5045433;28;61213;-76
2023/06/23 00:12:17;;;;;;;;;8.67;7.00;;;;;20.71;100.00;101945.47;5055826;28;45512;-76
2023/06/23 00:14:42;;;;;;;;;9.00;9.00;;;;;20.66;100.00;101938.34;5052617;28;66493;-77
2023/06/23 00:17:07;;;;;;;;;8.33;8.33;;;;;20.61;100.00;101944.69;5055989;28;45540;-77
2023/06/23 00:19:32;;;;;;;;;8.33;7.33;;;;;20.54;100.00;101951.06;5056713;28;63866;-77
2023/06/23 00:21:58;;;;;;;;;8.00;8.00;;;;;20.49;100.00;101955.59;5058400;28;61244;-78
2023/06/23 00:24:23;;;;;;;;;9.33;8.00;;;;;20.45;100.00;101952.00;5056634;28;47745;-77
2023/06/23 00:26:50;;;;;;;;;7.67;7.67;;;;;20.44;100.00;101957.41;5057473;28;53546;-76
2023/06/23 00:29:15;;;;;;;;;9.33;6.67;;;;;20.42;100.00;101957.44;5054742;28;45506;-77
2023/06/23 00:31:40;;;;;;;;;10.33;8.00;;;;;20.41;100.00;101956.53;5055028;28;55407;-77
2023/06/23 00:34:06;;;;;;;;;5.67;5.67;;;;;20.36;100.00;101953.03;5054753;28;65161;-78
2023/06/23 00:36:31;;;;;;;;;7.00;7.00;;;;;20.36;100.00;101953.03;5057795;28;68811;-78
2023/06/23 00:38:56;;;;;;;;;9.00;8.00;;;;;20.36;100.00;101953.03;5058789;28;48052;-78
2023/06/23 00:41:22;;;;;;;;;7.00;6.00;;;;;20.36;100.00;101942.28;5057439;28;59234;-78
2023/06/23 00:43:50;;;;;;;;;9.33;6.00;;;;;20.37;100.00;101946.75;5056390;28;46782;-79
2023/06/23 00:46:20;;;;;;;;;10.33;6.33;;;;;20.38;100.00;101945.84;5053669;28;45486;-76
2023/06/23 00:48:46;;;;;;;;;6.00;6.00;;;;;20.41;100.00;101947.63;5058792;28;45368;-77
2023/06/23 00:51:12;;;;;;;;;6.00;6.00;;;;;20.42;100.00;101946.69;5037672;28;45863;-77
2023/06/23 00:53:37;;;;;;;;;6.67;6.67;;;;;20.43;100.00;101951.16;5033261;28;49896;-76
2023/06/23 00:56:03;;;;;;;;;5.33;5.33;;;;;20.44;100.00;101952.91;5035775;28;45293;-78
2023/06/23 00:58:29;;;;;;;;;8.00;5.33;;;;;20.43;100.00;101956.50;5056452;28;45288;-77
2023/06/23 01:00:55;;;;;;;;;4.67;4.67;;;;;20.46;100.00;101958.28;5040335;28;45378;-77
2023/06/23 01:03:20;;;;;;;;;8.33;6.67;;;;;20.45;100.00;101957.38;5058363;28;46616;-77
2023/06/23 01:05:48;;;;;;;;;7.67;7.67;;;;;20.42;100.00;101957.44;5052230;28;45380;-77
2023/06/23 01:08:41;;;;;;;;;5.67;5.67;;;;;20.42;100.00;101960.13;5055688;28;45508;-78
2023/06/23 01:11:13;;;;;;;;;8.67;7.33;;;;;20.37;100.00;101952.13;5052026;28;45348;-77
2023/06/23 01:13:50;;;;;;;;;6.67;6.67;;;;;20.38;100.00;101961.94;5039578;28;46399;-78
2023/06/23 01:16:27;;;;;;;;;5.67;5.33;;;;;20.37;100.00;101957.47;5057986;28;45608;-77
2023/06/23 01:19:09;;;;;;;;;9.67;8.00;;;;;20.36;100.00;101958.38;5036800;28;45283;-77
2023/06/23 01:22:07;;;;;;;;;7.33;7.00;;;;;20.36;100.00;101958.38;5036680;28;45559;-79
2023/06/23 01:24:35;;;;;;;;;7.00;7.00;;;;;20.34;100.00;101967.34;5054751;28;47462;-77
2023/06/23 01:27:28;;;;;;;;;10.00;7.00;;;;;20.33;100.00;101970.94;5057758;28;45459;-77
2023/06/23 01:29:55;;;;;;;;;8.00;8.00;;;;;20.31;100.00;101968.28;5056728;28;45486;-78
2023/06/23 01:32:26;;;;;;;;;7.00;6.67;;;;;20.28;100.00;101965.63;5039955;28;45433;-78
2023/06/23 01:34:55;;;;;;;;;5.33;5.33;;;;;20.25;100.00;101970.16;5033601;28;46553;-77
2023/06/23 01:37:30;;;;;;;;;8.00;6.67;;;;;20.25;100.00;101986.25;5037618;28;45402;-77
2023/06/23 01:39:59;;;;;;;;;6.67;6.33;;;;;20.20;100.00;101978.25;5049634;28;45305;-76
2023/06/23 01:42:30;;;;;;;;;12.33;9.33;;;;;20.20;100.00;101985.41;5054110;28;45206;-77
2023/06/23 01:44:58;;;;;;;;;9.67;8.00;;;;;20.17;100.00;101980.94;5055741;28;46473;-78
2023/06/23 01:47:27;;;;;;;;;12.67;9.33;;;;;20.18;100.00;101988.06;5039794;28;45482;-78
2023/06/23 01:49:54;;;;;;;;;8.00;7.67;;;;;20.15;100.00;101983.66;5051439;28;45438;-77
2023/06/23 01:52:20;;;;;;;;;10.33;7.67;;;;;20.17;100.00;101982.75;5038939;28;61681;-77
2023/06/23 01:54:46;;;;;;;;;8.67;7.67;;;;;20.19;100.00;101992.56;5056263;28;61906;-78
2023/06/23 01:57:14;;;;;;;;;10.67;9.33;;;;;20.17;100.00;101991.66;5038613;28;45253;-78
2023/06/23 01:59:41;;;;;;;;;9.33;9.33;;;;;20.19;100.00;102005.97;5036845;28;45264;-77
2023/06/23 02:02:07;;;;;;;;;11.33;9.33;;;;;20.16;100.00;102000.63;5056147;28;51143;-77
2023/06/23 02:04:34;;;;;;;;;12.00;8.00;;;;;20.12;100.00;102001.56;5048324;28;46815;-77
2023/06/23 02:07:00;;;;;;;;;10.33;10.33;;;;;20.10;100.00;102009.63;5039333;28;45322;-78
2023/06/23 02:09:28;;;;;;;;;9.67;7.67;;;;;20.06;100.00;102005.19;5057587;28;45403;-78
2023/06/23 02:11:55;;;;;;;;;11.00;9.67;;;;;20.05;100.00;102005.22;5047573;28;45499;-77
2023/06/23 02:14:21;;;;;;;;;6.67;6.33;;;;;20.03;100.00;102001.66;5056086;28;46771;-76
2023/06/23 02:16:47;;;;;;;;;8.67;5.67;;;;;20.03;100.00;102004.34;5038337;28;45515;-78
2023/06/23 02:19:14;;;;;;;;;11.67;8.33;;;;;20.01;100.00;102007.03;5037547;28;64600;-77
2023/06/23 02:21:40;;;;;;;;;9.00;7.67;;;;;19.99;100.00;102006.16;5055203;28;45632;-78
2023/06/23 02:24:06;;;;;;;;;9.33;9.33;;;;;19.97;100.00;102001.69;5038438;28;47626;-77
2023/06/23 02:26:33;;;;;;;;;8.33;7.33;;;;;19.99;100.00;102002.59;5052525;28;45448;-77
2023/06/23 02:28:59;;;;;;;;;8.00;8.00;;;;;19.97;100.00;102007.94;5053727;28;45825;-78
2023/06/23 02:31:24;;;;;;;;;8.67;6.67;;;;;19.98;100.00;102001.72;5032748;28;62826;-78
2023/06/23 02:33:51;;;;;;;;;10.33;7.67;;;;;19.96;100.00;102002.59;5056779;28;46406;-77
2023/06/23 02:36:21;;;;;;;;;11.00;8.67;;;;;19.95;100.00;102009.75;5038844;28;45565;-77
2023/06/23 02:38:52;;;;;;;;;10.00;6.33;;;;;19.94;100.00;102009.78;5038962;28;45454;-78
2023/06/23 02:41:20;;;;;;;;;8.67;7.67;;;;;19.93;100.00;102022.31;5039154;28;45320;-77
2023/06/23 02:43:56;;;;;;;;;6.67;6.67;;;;;19.88;100.00;102018.78;5030285;28;46356;-77
2023/06/23 02:46:24;;;;;;;;;6.00;6.00;;;;;19.86;100.00;102021.44;5039297;28;45573;-77
2023/06/23 02:48:51;;;;;;;;;6.00;6.00;;;;;19.82;100.00;102021.50;5038702;28;45374;-77
2023/06/23 02:51:18;;;;;;;;;7.00;5.67;;;;;19.80;100.00;102024.19;5038447;28;45459;-77
2023/06/23 02:54:09;;;;;;;;;6.00;6.00;;;;;19.75;100.00;102023.31;5054366;28;46467;-77
2023/06/23 02:56:41;;;;;;;;;9.67;5.00;;;;;19.75;100.00;102035.84;5055128;28;45490;-78
2023/06/23 02:59:10;;;;;;;;;6.00;5.00;;;;;19.73;100.00;102037.66;5056982;28;45333;-78
2023/06/23 03:01:39;;;;;;;;;6.67;6.67;;;;;19.68;100.00;102037.69;5032273;28;45569;-77
2023/06/23 03:04:04;;;;;;;;;7.33;6.33;;;;;19.64;100.00;102038.59;5031490;28;47147;-78
2023/06/23 03:06:34;;;;;;;;;5.67;5.67;;;;;19.63;100.00;102037.72;5037168;28;45326;-77
2023/06/23 03:09:00;;;;;;;;;5.33;5.33;;;;;19.64;100.00;102038.59;5055146;28;45683;-78
2023/06/23 03:11:25;;;;;;;;;8.33;5.67;;;;;19.64;100.00;102046.63;5051325;28;45467;-77
2023/06/23 03:13:50;;;;;;;;;11.33;6.00;;;;;19.62;100.00;102033.25;5055062;28;70597;-77
2023/06/23 03:16:25;;;;;;;;;9.67;6.00;;;;;19.60;100.00;102039.50;5051928;28;45368;-77
2023/06/23 03:19:06;;;;;;;;;6.67;6.67;;;;;19.57;100.00;102040.41;5038368;28;45435;-77
2023/06/23 03:21:32;;;;;;;;;6.67;6.67;;;;;19.54;100.00;102036.84;5035025;28;45526;-77
2023/06/23 03:24:00;;;;;;;;;6.33;6.33;;;;;19.52;100.00;102035.97;5035464;28;67995;-78
2023/06/23 03:26:28;;;;;;;;;8.00;8.00;;;;;19.48;100.00;102035.09;5055773;28;45425;-77
2023/06/23 03:28:55;;;;;;;;;7.33;7.33;;;;;19.43;100.00;102033.34;5038808;28;45327;-78
2023/06/23 03:31:22;;;;;;;;;7.67;7.33;;;;;19.41;100.00;102036.06;5037241;28;62072;-76
2023/06/23 03:33:49;;;;;;;;;8.33;6.33;;;;;19.38;100.00;102044.09;5037123;28;68580;-77
2023/06/23 03:36:21;;;;;;;;;6.00;6.00;;;;;19.35;100.00;102039.66;5032940;28;45459;-78
2023/06/23 03:39:05;;;;;;;;;8.33;6.00;;;;;19.36;100.00;102051.25;5055917;28;45471;-77
2023/06/23 03:41:31;;;;;;;;;10.00;9.00;;;;;19.36;100.00;102053.94;5037210;28;45471;-77
2023/06/23 03:43:59;;;;;;;;;8.67;8.67;;;;;19.33;100.00;102060.22;5036592;28;71043;-78
2023/06/23 03:46:50;;;;;;;;;9.67;8.00;;;;;19.31;100.00;102069.13;5038352;28;45307;-77
2023/06/23 03:49:16;;;;;;;;;9.33;9.33;;;;;19.26;100.00;102065.59;5057222;28;45238;-77
2023/06/23 03:51:43;;;;;;;;;10.67;8.00;;;;;19.23;100.00;102063.84;5058624;28;62677;-78
2023/06/23 03:54:12;;;;;;;;;8.00;7.00;;;;;19.25;100.00;102064.72;5039005;28;47476;-78
2023/06/23 03:56:37;;;;;;;;;10.00;10.00;;;;;19.23;100.00;102063.84;5058223;28;45506;-78
2023/06/23 03:59:03;;;;;;;;;9.33;8.33;;;;;19.24;100.00;102064.72;5038286;28;45336;-78
2023/06/23 04:01:30;;;;;;;;;8.33;7.00;;;;;19.22;100.00;102063.81;5056398;28;45374;-77
2023/06/23 04:03:56;;;;;;;;;7.67;6.33;;;;;19.21;100.00;102064.72;5041258;28;45635;-77
2023/06/23 04:06:24;;;;;;;;;8.33;8.00;;;;;19.22;100.00;102074.53;5039303;28;63000;-77
2023/06/23 04:08:53;;;;;;;;;9.33;8.00;;;;;19.19;100.00;102075.47;5055243;28;45413;-77
2023/06/23 04:11:19;;;;;;;;;8.67;8.67;;;;;19.17;100.00;102079.03;5039935;28;45672;-77
2023/06/23 04:13:45;;;;;;;;;10.67;8.00;;;;;19.19;100.00;102087.97;5038249;28;64450;-77
2023/06/23 04:16:12;;;;;;;;;7.67;7.67;;;;;19.18;100.00;102092.44;5055857;28;64597;-77
2023/06/23 04:18:38;;;;;;;;;8.00;7.00;;;;;19.17;100.00;102100.44;5053158;28;65971;-77
2023/06/23 04:21:05;;;;;;;;;8.33;6.00;;;;;19.15;100.00;102103.13;5055463;28;45494;-78
2023/06/23 04:23:32;;;;;;;;;5.67;5.67;;;;;19.10;100.00;102094.22;5034657;28;47391;-77
2023/06/23 04:25:59;;;;;;;;;8.00;7.00;;;;;19.07;100.00;102089.78;5037373;28;45492;-77
2023/06/23 04:28:25;;;;;;;;;9.00;7.00;;;;;19.05;100.00;102102.28;5035628;28;60975;-76
2023/06/23 04:30:51;;;;;;;;;9.00;9.00;;;;;19.02;100.00;102104.97;5058711;28;45425;-76
2023/06/23 04:33:17;;;;;;;;;8.00;7.67;;;;;18.98;100.00;102115.69;5053048;28;46654;-78
2023/06/23 04:35:42;;;;;;;;;7.00;6.00;;;;;18.92;100.00;102105.03;5036447;28;54791;-76
2023/06/23 04:38:12;;;;;;;;;7.33;5.67;;;;;18.87;100.00;102104.13;5054489;28;45195;-77
2023/06/23 04:40:45;;;;;;;;;9.67;7.00;;;;;18.83;100.00;102096.09;5033919;28;45516;-76
2023/06/23 04:43:20;;;;;;;;;11.67;8.67;;;;;18.82;100.00;102109.50;5053181;28;46832;-77
2023/06/23 04:45:52;;;;;;;;;6.00;6.00;;;;;18.79;100.00;102115.72;5055939;28;45435;-78
2023/06/23 04:48:22;;;;;;;;;8.00;8.00;;;;;18.77;100.00;102122.88;5038752;28;45470;-78
2023/06/23 04:50:49;;;;;;;;;7.00;6.33;;;;;18.72;100.00;102124.69;5054491;28;45428;-79
2023/06/23 04:53:20;;;;;;;;;6.33;6.33;;;;;18.73;100.00;102142.50;5056250;28;47625;-78
2023/06/23 04:55:51;;;;;;;;;6.67;6.33;;;;;18.70;100.00;102134.50;5037457;28;45325;-78
2023/06/23 04:58:17;;;;;;;;;10.33;6.33;;;;;18.74;100.00;102135.38;5053896;28;45396;-77
2023/06/23 05:00:43;;;;;;;;;8.00;7.00;;;;;18.77;100.00;102138.94;5054302;28;64076;-77
2023/06/23 05:03:09;;;;;;;;;7.33;6.00;;;;;18.80;100.00;102133.59;5038352;28;70333;-77
2023/06/23 05:05:34;;;;;;;;;8.00;8.00;;;;;18.83;100.00;102135.38;5038716;28;68810;-78
2023/06/23 05:08:02;;;;;;;;;7.00;6.67;;;;;18.84;100.00;102140.69;5054016;28;62377;-78
2023/06/23 05:10:29;;;;;;;;;7.00;7.00;;;;;18.85;100.00;102141.59;5051361;28;45487;-77
2023/06/23 05:12:55;;;;;;;;;7.33;6.00;;;;;18.85;100.00;102146.94;5033601;28;46486;-78
2023/06/23 05:15:21;;;;;;;;;6.67;6.67;;;;;18.89;100.00;102154.06;5038995;28;56500;-77
2023/06/23 05:17:48;;;;;;;;;6.00;6.00;;;;;18.88;100.00;102152.31;5039038;28;45475;-78
2023/06/23 05:20:17;;;;;;;;;6.67;5.33;;;;;18.89;100.00;102155.88;5054934;28;45627;-77
2023/06/23 05:22:45;;;;;;;;;10.67;6.00;;;;;18.86;100.00;102153.22;5054638;28;47470;-77
2023/06/23 05:25:11;;;;;;;;;5.00;5.00;;;;;18.83;100.00;102154.97;5032526;28;45476;-77
2023/06/23 05:27:37;;;;;;;;;9.67;7.00;;;;;18.83;100.00;102159.44;5048023;28;60790;-77
2023/06/23 05:30:04;;;;;;;;;6.33;6.33;;;;;18.80;100.00;102157.69;5038050;28;45222;-77
2023/06/23 05:32:31;;;;;;;;;8.33;6.33;;;;;18.82;100.00;102158.56;5039262;28;46624;-78
2023/06/23 05:35:01;;;;;;;;;5.33;4.33;;;;;18.84;100.00;102159.44;5039852;28;45514;-77
2023/06/23 05:37:28;;;;;;;;;7.00;6.00;;;;;18.90;100.00;102161.19;5039525;28;45251;-77
2023/06/23 05:39:55;;;;;;;;;6.33;6.33;;;;;18.91;100.00;102167.44;5057794;28;45523;-77
2023/06/23 05:42:20;;;;;;;;;7.67;7.33;;;;;18.91;100.00;102176.41;5053594;28;70563;-77
2023/06/23 05:44:45;;;;;;;;;8.00;5.33;;;;;18.91;100.00;102170.13;5057282;28;45302;-77
2023/06/23 05:47:15;;;;;;;;;8.00;5.67;;;;;18.91;100.00;102163.00;5052209;28;56299;-78
2023/06/23 05:49:42;;;;;;;;;8.67;7.33;;;;;18.86;100.00;102161.25;5057672;28;45368;-77
2023/06/23 05:52:11;;;;;;;;;7.00;7.00;;;;;18.89;100.00;102158.53;5057328;28;48700;-76
2023/06/23 05:54:39;;;;;;;;;6.00;6.00;;;;;18.90;100.00;102160.31;5041498;28;45315;-77
2023/06/23 05:57:07;;;;;;;;;8.33;7.00;;;;;18.93;100.00;102166.56;5038814;28;45370;-77
2023/06/23 05:59:47;;;;;;;;;7.67;6.33;;;;;18.98;100.00;102166.56;5039331;28;45435;-77
2023/06/23 06:02:21;;;;;;;;;9.33;7.00;;;;;19.01;100.00;102167.41;5037448;28;46426;-76
2023/06/23 06:04:49;;;;;;;;;6.00;6.00;;;;;19.07;100.00;102179.94;5039027;28;45372;-77
2023/06/23 06:07:16;;;;;;;;;6.33;6.33;;;;;19.10;100.00;102174.53;5039631;28;45261;-77
2023/06/23 06:09:42;;;;;;;;;7.00;7.00;;;;;19.13;100.00;102163.84;5038017;28;45644;-76
2023/06/23 06:12:10;;;;;;;;;8.33;8.00;;;;;19.12;100.00;102170.06;5052139;28;70891;-78
2023/06/23 06:14:37;;;;;;;;;6.67;6.67;;;;;19.16;100.00;102179.88;5038853;28;45457;-77
2023/06/23 06:17:03;;;;;;;;;6.00;6.00;;;;;19.17;100.00;102175.41;5056723;28;45301;-77
2023/06/23 06:19:30;;;;;;;;;5.00;5.00;;;;;19.20;100.00;102178.09;5153835;22;45571;-77
2023/06/23 06:21:56;;;;;;;;;10.33;9.00;;;;;19.19;100.00;102165.59;5095691;27;45806;-78
2023/06/23 06:24:23;;;;;;;;;8.67;8.67;;;;;19.22;100.00;102174.50;5093900;27;50131;-78
2023/06/23 06:26:49;;;;;;;;;9.67;7.00;;;;;19.23;100.00;102184.34;5093345;27;57041;-77
2023/06/23 06:29:17;;;;;;;;;8.33;6.67;;;;;19.27;100.00;102178.06;5095090;27;45354;-77
2023/06/23 06:31:45;;;;;;;;;6.33;6.33;;;;;19.30;100.00;102178.06;5094038;27;46604;-78
2023/06/23 06:34:14;;;;;;;;;7.67;7.67;;;;;19.35;100.00;102186.09;5096808;27;45475;-77
2023/06/23 06:36:40;;;;;;;;;7.00;7.00;;;;;19.42;100.00;102192.28;5109398;27;45318;-78
2023/06/23 06:39:05;;;;;;;;;7.00;7.00;;;;;19.47;100.00;102185.13;5095219;27;45157;-77
2023/06/23 06:41:31;;;;;;;;;12.00;10.00;;;;;19.52;100.00;102178.88;5094597;27;70340;-77
2023/06/23 06:43:57;;;;;;;;;8.67;7.00;;;;;19.60;100.00;102189.56;5091957;27;53738;-77
2023/06/23 06:46:24;;;;;;;;;5.33;5.33;;;;;19.65;100.00;102178.81;5094800;27;45354;-77
2023/06/23 06:48:50;;;;;;;;;8.00;8.00;;;;;19.67;100.00;102183.28;5095749;27;45215;-77
2023/06/23 06:51:17;;;;;;;;;14.33;9.67;;;;;19.75;100.00;102184.13;5090653;27;47828;-78
2023/06/23 06:53:44;;;;;;;;;8.67;6.67;;;;;19.79;100.00;102182.34;5092472;27;45473;-78
2023/06/23 06:56:10;;;;;;;;;9.00;6.33;;;;;19.82;100.00;102176.97;5095465;27;45455;-78
2023/06/23 06:58:35;;;;;;;;;6.00;6.00;;;;;19.88;100.00;102183.19;5091043;27;45500;-78
2023/06/23 07:01:00;;;;;;;;;6.00;5.00;;;;;19.91;100.00;102184.03;5093755;27;70142;-78
2023/06/23 07:03:26;;;;;;;;;7.00;5.67;;;;;19.94;100.00;102184.94;5093774;27;69507;-78
2023/06/23 07:05:51;;;;;;;;;9.00;9.00;;;;;19.99;100.00;102183.09;5097190;27;45748;-78
2023/06/23 07:08:17;;;;;;;;;11.67;6.00;;;;;20.02;100.00;102168.78;5095304;27;57356;-77
2023/06/23 07:10:42;;;;;;;;;10.00;7.00;;;;;20.10;100.00;102169.63;5093038;27;57920;-78
2023/06/23 07:13:07;;;;;;;;;5.00;5.00;;;;;20.16;100.00;102166.91;5095682;27;54304;-78
2023/06/23 07:15:33;;;;;;;;;6.00;6.00;;;;;20.21;100.00;102162.41;5092230;27;45211;-78
2023/06/23 07:17:58;;;;;;;;;6.00;5.00;;;;;20.25;100.00;102158.78;5093883;27;45728;-81
2023/06/23 07:20:23;;;;;;;;;7.00;7.00;;;;;20.30;100.00;102156.97;5092821;27;47711;-77
2023/06/23 07:22:49;;;;;;;;;8.67;7.00;;;;;20.32;100.00;102152.47;5094037;27;45546;-78
2023/06/23 07:25:14;;;;;;;;;8.00;6.67;;;;;20.36;100.00;102154.22;5092830;27;45743;-77
2023/06/23 07:27:39;;;;;;;;;7.67;7.67;;;;;20.45;100.00;102157.72;5096079;27;45385;-76
2023/06/23 07:30:05;;;;;;;;;10.67;6.33;;;;;20.49;100.00;102149.66;5095310;27;68840;-78
2023/06/23 07:32:31;;;;;;;;;7.67;7.67;;;;;20.56;100.00;102150.50;5095111;27;45635;-76
2023/06/23 07:34:56;;;;;;;;;7.00;7.00;;;;;20.59;100.00;102150.47;5092482;27;53185;-77
2023/06/23 07:37:22;;;;;;;;;6.00;6.00;;;;;20.64;100.00;102159.38;5097013;27;45488;-75
2023/06/23 07:39:47;;;;;;;;;5.67;5.33;;;;;20.69;100.00;102162.03;5092249;27;47387;-76
2023/06/23 07:42:13;;;;;;;;;9.00;8.00;;;;;20.74;100.00;102169.13;5095484;27;45451;-77
2023/06/23 07:44:38;;;;;;;;;8.00;7.00;;;;;20.79;100.00;102169.09;5087348;27;45556;-76
2023/06/23 07:47:04;;;;;;;;;9.00;6.33;;;;;20.84;100.00;102167.25;5094022;27;45382;-76
2023/06/23 07:49:30;;;;;;;;;6.00;6.00;;;;;20.88;100.00;102169.88;5094283;27;47422;-77
2023/06/23 07:52:00;;;;;;;;;12.67;6.67;;;;;20.95;100.00;102172.50;5085594;27;45471;-75
2023/06/23 07:54:27;;;;;;;;;5.33;5.33;;;;;20.99;100.00;102180.50;5096919;27;45374;-77
2023/06/23 07:56:52;;;;;;;;;6.67;6.00;;;;;21.03;100.00;102175.97;5094987;27;45408;-76
2023/06/23 07:59:18;;;;;;;;;9.00;7.33;;;;;21.07;100.00;102175.94;5095947;27;46344;-76
2023/06/23 08:01:43;;;;;;;;;6.00;6.00;;;;;21.15;100.00;102184.81;5095890;27;45317;-77
2023/06/23 08:04:08;;;;;;;;;6.00;4.67;;;;;21.18;100.00;102186.56;5095945;27;53324;-76
2023/06/23 08:06:33;;;;;;;;;12.33;7.33;;;;;21.24;100.00;102193.66;5096052;27;62888;-79
2023/06/23 08:08:59;;;;;;;;;8.00;7.67;;;;;21.29;100.00;102184.63;5094438;27;46472;-78
2023/06/23 08:11:25;;;;;;;;;8.00;5.00;;;;;21.36;100.00;102194.44;5091582;27;46771;-79
2023/06/23 08:13:50;;;;;;;;;7.00;6.00;;;;;21.44;100.00;102197.91;5094449;27;45401;-78
2023/06/23 08:16:16;;;;;;;;;6.33;5.00;;;;;21.50;100.00;102198.75;5094745;27;45533;-78
2023/06/23 08:18:41;;;;;;;;;7.67;4.33;;;;;21.53;100.00;102188.84;5094585;27;47554;-77
2023/06/23 08:21:07;;;;;;;;;5.00;4.67;;;;;21.57;100.00;102192.38;5091724;27;65819;-80
2023/06/23 08:23:32;;;;;;;;;9.33;4.33;;;;;21.62;100.00;102199.47;5095441;27;45140;-79
2023/06/23 08:25:57;;;;;;;;;4.00;4.00;;;;;21.70;100.00;102194.00;5095054;27;45623;-78
2023/06/23 08:28:23;;;;;;;;;4.33;4.00;;;;;21.77;100.00;102198.38;5095505;27;46238;-79
2023/06/23 08:30:48;;;;;;;;;7.33;4.33;;;;;21.82;100.00;102199.22;5091834;27;66504;-78
2023/06/23 08:33:13;;;;;;;;;5.00;4.00;;;;;21.86;100.00;102203.63;5091454;27;45421;-79
2023/06/23 08:35:39;;;;;;;;;7.33;4.00;;;;;21.87;100.00;102197.34;5097818;27;59275;-76
2023/06/23 08:38:05;;;;;;;;;5.67;4.00;;;;;21.91;100.00;102207.16;5096981;27;45528;-77
2023/06/23 08:40:30;;;;;;;;;3.67;3.67;;;;;21.97;100.00;102204.38;5096586;27;45571;-78
2023/06/23 08:42:56;;;;;;;;;6.67;4.33;;;;;22.04;100.00;102206.97;5092458;27;62864;-77
2023/06/23 08:45:23;;;;;;;;;6.33;5.00;;;;;22.09;100.00;102213.16;5091548;27;45690;-77
2023/06/23 08:47:51;;;;;;;;;5.33;4.00;;;;;22.16;100.00;102214.91;5098733;27;47770;-78
2023/06/23 08:50:17;;;;;;;;;6.67;4.33;;;;;22.23;100.00;102200.44;5097607;27;45419;-78
2023/06/23 08:52:42;;;;;;;;;6.33;4.00;;;;;22.30;100.00;102210.19;5097264;27;65076;-77
2023/06/23 08:55:09;;;;;;;;;4.00;4.00;;;;;22.39;100.00;102211.84;5097216;27;45469;-77
2023/06/23 08:57:37;;;;;;;;;5.67;3.00;;;;;22.46;100.00;102208.13;5097390;27;47364;-76
2023/06/23 09:00:03;;;;;;;;;1.00;1.00;;;;;22.57;100.00;102219.63;5096830;27;45480;-77
2023/06/23 09:02:29;;;;;;;;;5.67;4.67;;;;;22.63;100.00;102221.31;5093833;27;45602;-76
2023/06/23 09:04:55;;;;;;;;;5.00;4.00;;;;;22.69;100.00;102211.34;5096432;27;45522;-76
2023/06/23 09:07:20;;;;;;;;;6.67;4.00;;;;;22.74;100.00;102206.78;5096382;27;47409;-76
2023/06/23 09:09:47;;;;;;;;;4.33;4.33;;;;;22.81;100.00;102210.25;5089923;27;45533;-78
2023/06/23 09:12:14;;;;;;;;;3.00;3.00;;;;;22.88;100.00;102211.94;5096921;27;45357;-80
2023/06/23 09:14:40;;;;;;;;;4.67;1.67;;;;;22.90;100.00;102209.19;5094972;27;46600;-82
2023/06/23 09:17:05;;;;;;;;;3.00;3.00;;;;;22.90;100.00;102210.09;5093416;27;46592;-82
2023/06/23 09:19:34;;;;;;;;;5.67;4.00;;;;;22.95;100.00;102218.97;5095653;27;45562;-81
2023/06/23 09:22:00;;;;;;;;;4.67;2.00;;;;;22.95;100.00;102210.88;5091653;27;45693;-81
2023/06/23 09:24:41;;;;;;;;;3.00;3.00;;;;;23.02;100.00;102205.41;5095329;27;45448;-82
2023/06/23 09:27:06;;;;;;;;;4.00;4.00;;;;;23.06;100.00;102207.09;5096744;27;45899;-79
2023/06/23 09:29:32;;;;;;;;;3.00;3.00;;;;;23.07;100.00;102204.41;5097671;27;45219;-79
2023/06/23 09:31:59;;;;;;;;;4.00;2.67;;;;;23.13;100.00;102208.78;5094703;27;45294;-83
2023/06/23 09:34:29;;;;;;;;;4.67;3.00;;;;;23.18;100.00;102209.59;5091207;27;45417;-80
2023/06/23 09:37:14;;;;;;;;;4.00;4.00;;;;;23.21;100.00;102209.50;5098070;27;47436;-81
2023/06/23 09:39:43;;;;;;;;;4.00;4.00;;;;;23.22;100.00;102200.50;5092455;27;45461;-81
2023/06/23 09:42:12;;;;;;;;;2.67;2.67;;;;;23.23;100.00;102197.81;5093390;27;45512;-81
2023/06/23 09:44:43;;;;;;;;;3.67;2.00;;;;;23.31;100.00;102197.63;5092786;27;45659;-81
2023/06/23 09:47:08;;;;;;;;;2.67;2.00;;;;;23.37;100.00;102199.31;5091346;27;46947;-80
2023/06/23 09:49:41;;;;;;;;;3.00;3.00;;;;;23.41;100.00;102190.25;5098015;27;55090;-81
2023/06/23 09:52:08;;;;;;;;;4.00;2.00;;;;;23.43;100.00;102197.38;5092317;27;45556;-80
2023/06/23 09:54:39;;;;;;;;;2.67;1.33;;;;;23.45;100.00;102191.97;5095297;27;45552;-81
2023/06/23 09:57:15;;;;;;;;;2.67;2.67;;;;;23.50;100.00;102190.06;5092931;27;46497;-80
2023/06/23 09:59:42;;;;;;;;;6.00;4.67;;;;;23.53;100.00;102189.97;5092415;27;45319;-81
2023/06/23 10:02:09;;;;;;;;;2.00;2.00;;;;;23.60;100.00;102190.75;5090736;27;45515;-81
2023/06/23 10:04:35;;;;;;;;;5.00;2.00;;;;;23.68;100.00;102187.00;5094461;27;45519;-80
2023/06/23 10:07:23;;;;;;;;;3.00;3.00;;;;;23.74;100.00;102194.06;5089057;27;46937;-80
2023/06/23 10:09:56;;;;;;;;;4.33;3.33;;;;;23.81;100.00;102184.00;5095603;27;45753;-80
2023/06/23 10:12:23;;;;;;;;;3.67;3.67;;;;;23.85;100.00;102185.72;5098094;27;45466;-80
2023/06/23 10:14:50;;;;;;;;;6.00;3.33;;;;;23.92;100.00;102187.38;5097948;27;45544;-80
2023/06/23 10:17:16;;;;;;;;;2.00;2.00;;;;;23.99;100.00;102186.31;5094385;27;46900;-80
2023/06/23 10:19:44;;;;;;;;;3.00;3.00;;;;;24.04;100.00;102185.28;5093884;27;45497;-80
2023/06/23 10:22:10;;;;;;;;;3.00;3.00;;;;;24.12;100.00;102186.91;5092493;27;45505;-80
2023/06/23 10:24:36;;;;;;;;;3.00;2.00;;;;;24.16;100.00;102189.50;5077052;27;45497;-81
2023/06/23 10:27:04;;;;;;;;;4.00;4.00;;;;;24.22;100.00;102185.75;5093018;27;64139;-80
2023/06/23 10:29:31;;;;;;;;;4.00;3.00;;;;;24.25;100.00;102174.91;5090903;27;45451;-81
2023/06/23 10:31:57;;;;;;;;;3.33;3.33;;;;;24.31;100.00;102172.94;5094906;27;45472;-81
2023/06/23 10:34:24;;;;;;;;;3.00;3.00;;;;;24.40;100.00;102163.75;5088067;27;62345;-82
2023/06/23 10:36:56;;;;;;;;;4.00;2.33;;;;;24.49;100.00;102177.00;5090494;27;66541;-82
2023/06/23 10:39:24;;;;;;;;;3.33;3.00;;;;;24.58;100.00;102164.19;5094518;27;45497;-83
2023/06/23 10:41:52;;;;;;;;;6.00;5.67;;;;;24.67;100.00;102167.56;5095601;27;65815;-82
2023/06/23 10:44:18;;;;;;;;;3.00;3.00;;;;;24.72;100.00;102171.00;5095678;27;45172;-82
2023/06/23 10:46:44;;;;;;;;;4.00;2.67;;;;;24.80;100.00;102168.09;5096112;27;48020;-82
2023/06/23 10:49:11;;;;;;;;;4.00;4.00;;;;;24.83;100.00;102171.63;5097553;27;45827;-80
2023/06/23 10:51:37;;;;;;;;;4.67;3.00;;;;;24.87;100.00;102167.00;5093040;27;45326;-81
2023/06/23 10:54:07;;;;;;;;;4.00;4.00;;;;;24.94;100.00;102167.72;5093177;27;46754;-83
2023/06/23 10:56:42;;;;;;;;;3.67;3.67;;;;;24.98;100.00;102169.41;5086747;27;46392;-82
2023/06/23 10:59:24;;;;;;;;;4.33;4.00;;;;;25.02;100.00;102171.97;5093723;27;45538;-81
2023/06/23 11:02:02;;;;;;;;;4.00;4.00;;;;;25.11;100.00;102175.41;5080501;27;45564;-82
2023/06/23 11:04:32;;;;;;;;;6.00;4.00;;;;;25.15;100.00;102174.38;5095073;27;45462;-81
2023/06/23 11:07:05;;;;;;;;;3.00;3.00;;;;;25.21;100.00;102177.78;5089810;27;47547;-81
2023/06/23 11:09:54;;;;;;;;;3.67;3.67;;;;;25.28;100.00;102168.56;5088802;27;45494;-82
2023/06/23 11:12:32;;;;;;;;;5.00;4.33;;;;;25.37;100.00;102164.72;5096784;27;45264;-82
2023/06/23 11:15:08;;;;;;;;;6.33;3.33;;;;;25.48;100.00;102168.00;5088563;27;45589;-82
2023/06/23 11:17:40;;;;;;;;;2.33;2.33;;;;;25.59;100.00;102171.25;5092958;27;47534;-83
2023/06/23 11:20:10;;;;;;;;;5.00;3.00;;;;;25.72;100.00;102174.47;5092819;27;45270;-83